sensor_id;sensor_type;location;lat;lon;timestamp;pressure;altitude;pressure_sealevel;temperature;humidity
60337;BME280;46978;50.288;28.624;2024-01-07T00:00:18;98782.00;;;-4.96;100.00
60337;BME280;46978;50.288;28.624;2024-01-07T00:01:20;98786.31;;;-4.93;100.00
60337;BME280;46978;50.288;28.624;2024-01-07T00:02:22;98785.36;;;-4.97;100.00
60337;BME280;46978;50.288;28.624;2024-01-07T00:03:23;98788.00;;;-4.94;100.00
60337;BME280;46978;50.288;28.624;2024-01-07T00:04:25;98790.37;;;-4.98;100.00
60337;BME280;46978;50.288;28.624;2024-01-07T00:05:27;98782.73;;;-5.00;100.00
60337;BME280;46978;50.288;28.624;2024-01-07T00:06:28;98784.42;;;-4.99;100.00
60337;BME280;46978;50.288;28.624;2024-01-07T00:07:30;98799.45;;;-5.04;100.00
60337;BME280;46978;50.288;28.624;2024-01-07T00:08:32;98795.22;;;-5.05;100.00
60337;BME280;46978;50.288;28.624;2024-01-07T00:09:33;98804.40;;;-5.07;100.00
60337;BME280;46978;50.288;28.624;2024-01-07T00:10:35;98804.13;;;-5.14;100.00
60337;BME280;46978;50.288;28.624;2024-01-07T00:11:37;98803.39;;;-5.12;100.00
60337;BME280;46978;50.288;28.624;2024-01-07T00:12:38;98798.33;;;-5.12;100.00
60337;BME280;46978;50.288;28.624;2024-01-07T00:13:40;98801.66;;;-5.13;100.00
60337;BME280;46978;50.288;28.624;2024-01-07T00:14:41;98801.60;;;-5.14;100.00
60337;BME280;46978;50.288;28.624;2024-01-07T00:15:43;98790.74;;;-5.12;100.00
60337;BME280;46978;50.288;28.624;2024-01-07T00:16:45;98796.70;;;-5.10;100.00
60337;BME280;46978;50.288;28.624;2024-01-07T00:17:46;98801.02;;;-5.07;100.00
60337;BME280;46978;50.288;28.624;2024-01-07T00:18:48;98798.55;;;-5.06;100.00
60337;BME280;46978;50.288;28.624;2024-01-07T00:19:49;98806.88;;;-5.08;100.00
60337;BME280;46978;50.288;28.624;2024-01-07T00:20:51;98800.22;;;-5.06;100.00
60337;BME280;46978;50.288;28.624;2024-01-07T00:21:53;98794.17;;;-5.10;100.00
60337;BME280;46978;50.288;28.624;2024-01-07T00:22:54;98809.24;;;-5.13;100.00
60337;BME280;46978;50.288;28.624;2024-01-07T00:23:56;98809.30;;;-5.11;100.00
60337;BME280;46978;50.288;28.624;2024-01-07T00:24:57;98802.54;;;-5.12;100.00
60337;BME280;46978;50.288;28.624;2024-01-07T00:25:59;98798.33;;;-5.12;100.00
60337;BME280;46978;50.288;28.624;2024-01-07T00:27:01;98805.06;;;-5.12;100.00
60337;BME280;46978;50.288;28.624;2024-01-07T00:28:03;98793.27;;;-5.12;100.00
60337;BME280;46978;50.288;28.624;2024-01-07T00:29:05;98805.97;;;-5.10;100.00
60337;BME280;46978;50.288;28.624;2024-01-07T00:30:07;98807.70;;;-5.09;100.00
60337;BME280;46978;50.288;28.624;2024-01-07T00:31:13;98800.91;;;-5.10;100.00
60337;BME280;46978;50.288;28.624;2024-01-07T00:32:15;98805.23;;;-5.08;100.00
60337;BME280;46978;50.288;28.624;2024-01-07T00:33:17;98805.17;;;-5.09;100.00
60337;BME280;46978;50.288;28.624;2024-01-07T00:34:18;98806.02;;;-5.09;100.00
60337;BME280;46978;50.288;28.624;2024-01-07T00:35:20;98802.70;;;-5.08;100.00
60337;BME280;46978;50.288;28.624;2024-01-07T00:36:21;98803.50;;;-5.09;100.00
60337;BME280;46978;50.288;28.624;2024-01-07T00:37:23;98807.65;;;-5.11;100.00
60337;BME280;46978;50.288;28.624;2024-01-07T00:38:25;98816.83;;;-5.13;100.00
60337;BME280;46978;50.288;28.624;2024-01-07T00:39:27;98815.30;;;-5.09;100.00
60337;BME280;46978;50.288;28.624;2024-01-07T00:40:28;98817.88;;;-5.08;100.00
60337;BME280;46978;50.288;28.624;2024-01-07T00:41:30;98813.72;;;-5.06;100.00
60337;BME280;46978;50.288;28.624;2024-01-07T00:42:31;98823.09;;;-5.03;100.00
60337;BME280;46978;50.288;28.624;2024-01-07T00:43:33;98812.09;;;-5.04;100.00
60337;BME280;46978;50.288;28.624;2024-01-07T00:44:37;98805.50;;;-5.00;100.00
60337;BME280;46978;50.288;28.624;2024-01-07T00:45:38;98817.31;;;-4.99;100.00
60337;BME280;46978;50.288;28.624;2024-01-07T00:46:40;98809.52;;;-5.05;100.00
60337;BME280;46978;50.288;28.624;2024-01-07T00:47:42;98804.40;;;-5.07;100.00
60337;BME280;46978;50.288;28.624;2024-01-07T00:48:44;98814.41;;;-5.10;100.00
60337;BME280;46978;50.288;28.624;2024-01-07T00:49:45;98816.20;;;-5.07;100.00
60337;BME280;46978;50.288;28.624;2024-01-07T00:50:47;98817.16;;;-5.04;100.00
60337;BME280;46978;50.288;28.624;2024-01-07T00:51:49;98810.50;;;-5.01;100.00
60337;BME280;46978;50.288;28.624;2024-01-07T00:52:50;98816.41;;;-5.01;100.00
60337;BME280;46978;50.288;28.624;2024-01-07T00:53:52;98823.95;;;-5.02;100.00
60337;BME280;46978;50.288;28.624;2024-01-07T00:54:54;98833.85;;;-5.09;100.00
60337;BME280;46978;50.288;28.624;2024-01-07T00:55:55;98825.52;;;-5.06;100.00
60337;BME280;46978;50.288;28.624;2024-01-07T00:56:57;98824.74;;;-5.04;100.00
60337;BME280;46978;50.288;28.624;2024-01-07T00:57:59;98820.52;;;-5.05;100.00
60337;BME280;46978;50.288;28.624;2024-01-07T00:59:00;98822.27;;;-5.02;100.00
60337;BME280;46978;50.288;28.624;2024-01-07T01:00:06;98819.80;;;-5.00;100.00
60337;BME280;46978;50.288;28.624;2024-01-07T01:01:08;98818.89;;;-5.02;100.00
60337;BME280;46978;50.288;28.624;2024-01-07T01:02:09;98822.27;;;-5.02;100.00
60337;BME280;46978;50.288;28.624;2024-01-07T01:03:11;98817.16;;;-5.04;100.00
60337;BME280;46978;50.288;28.624;2024-01-07T01:04:13;98822.05;;;-5.08;100.00
60337;BME280;46978;50.288;28.624;2024-01-07T01:05:15;98828.05;;;-5.06;100.00
60337;BME280;46978;50.288;28.624;2024-01-07T01:06:17;98821.36;;;-5.04;100.00
60337;BME280;46978;50.288;28.624;2024-01-07T01:07:19;98820.56;;;-5.03;100.00
60337;BME280;46978;50.288;28.624;2024-01-07T01:08:20;98820.56;;;-5.03;100.00
60337;BME280;46978;50.288;28.624;2024-01-07T01:09:22;98826.53;;;-5.01;100.00
60337;BME280;46978;50.288;28.624;2024-01-07T01:10:24;98827.44;;;-4.99;100.00
60337;BME280;46978;50.288;28.624;2024-01-07T01:11:26;98822.22;;;-5.04;100.00
60337;BME280;46978;50.288;28.624;2024-01-07T01:12:27;98832.50;;;-4.99;100.00
60337;BME280;46978;50.288;28.624;2024-01-07T01:13:29;98829.22;;;-4.96;100.00
60337;BME280;46978;50.288;28.624;2024-01-07T01:14:31;98830.08;;;-4.96;100.00
60337;BME280;46978;50.288;28.624;2024-01-07T01:15:32;98822.54;;;-4.94;100.00
60337;BME280;46978;50.288;28.624;2024-01-07T01:16:34;98827.65;;;-4.93;100.00
60337;BME280;46978;50.288;28.624;2024-01-07T01:17:36;98825.02;;;-4.96;100.00
60337;BME280;46978;50.288;28.624;2024-01-07T01:18:37;98825.06;;;-4.94;100.00
60337;BME280;46978;50.288;28.624;2024-01-07T01:19:39;98830.19;;;-4.93;100.00
60337;BME280;46978;50.288;28.624;2024-01-07T01:20:41;98840.30;;;-4.93;100.00
60337;BME280;46978;50.288;28.624;2024-01-07T01:21:42;98842.56;;;-5.00;100.00
60337;BME280;46978;50.288;28.624;2024-01-07T01:22:44;98833.22;;;-5.03;100.00
60337;BME280;46978;50.288;28.624;2024-01-07T01:23:46;98830.63;;;-5.05;100.00
60337;BME280;46978;50.288;28.624;2024-01-07T01:24:48;98825.52;;;-5.06;100.00
60337;BME280;46978;50.288;28.624;2024-01-07T01:25:50;98829.80;;;-5.04;100.00
60337;BME280;46978;50.288;28.624;2024-01-07T01:26:51;98854.20;;;-5.06;100.00
60337;BME280;46978;50.288;28.624;2024-01-07T01:27:53;98834.92;;;-5.02;100.00
60337;BME280;46978;50.288;28.624;2024-01-07T01:28:55;98828.90;;;-5.06;99.33
60337;BME280;46978;50.288;28.624;2024-01-07T01:29:56;98832.34;;;-5.04;99.46
60337;BME280;46978;50.288;28.624;2024-01-07T01:30:58;98829.86;;;-5.02;99.52
60337;BME280;46978;50.288;28.624;2024-01-07T01:32:00;98840.92;;;-5.00;98.77
60337;BME280;46978;50.288;28.624;2024-01-07T01:33:01;98835.03;;;-4.99;99.03
60337;BME280;46978;50.288;28.624;2024-01-07T01:34:03;98837.50;;;-5.00;98.32
60337;BME280;46978;50.288;28.624;2024-01-07T01:35:06;98836.70;;;-4.99;98.29
60337;BME280;46978;50.288;28.624;2024-01-07T01:36:08;98837.55;;;-4.99;98.22
60337;BME280;46978;50.288;28.624;2024-01-07T01:37:11;98839.23;;;-4.99;98.89
60337;BME280;46978;50.288;28.624;2024-01-07T01:38:13;98836.77;;;-4.98;99.07
60337;BME280;46978;50.288;28.624;2024-01-07T01:39:15;98839.29;;;-4.98;99.04
60337;BME280;46978;50.288;28.624;2024-01-07T01:40:17;98834.97;;;-5.00;98.93
60337;BME280;46978;50.288;28.624;2024-01-07T01:41:18;98835.08;;;-4.97;99.23
60337;BME280;46978;50.288;28.624;2024-01-07T01:42:20;98837.61;;;-4.97;98.27
60337;BME280;46978;50.288;28.624;2024-01-07T01:43:27;98843.55;;;-4.97;98.37
60337;BME280;46978;50.288;28.624;2024-01-07T01:44:26;98832.55;;;-4.97;98.00
60337;BME280;46978;50.288;28.624;2024-01-07T01:45:28;98833.38;;;-4.98;97.72
60337;BME280;46978;50.288;28.624;2024-01-07T01:46:30;98828.27;;;-5.00;98.03
60337;BME280;46978;50.288;28.624;2024-01-07T01:47:33;98836.66;;;-5.01;98.21
60337;BME280;46978;50.288;28.624;2024-01-07T01:48:38;98821.47;;;-5.01;97.97
60337;BME280;46978;50.288;28.624;2024-01-07T01:49:40;98833.27;;;-5.01;97.53
60337;BME280;46978;50.288;28.624;2024-01-07T01:50:42;98832.45;;;-5.00;97.19
60337;BME280;46978;50.288;28.624;2024-01-07T01:51:44;98831.59;;;-5.01;97.08
60337;BME280;46978;50.288;28.624;2024-01-07T01:52:46;98837.50;;;-5.00;97.08
60337;BME280;46978;50.288;28.624;2024-01-07T01:53:49;98826.31;;;-5.07;97.29
60337;BME280;46978;50.288;28.624;2024-01-07T01:54:52;98838.97;;;-5.07;97.70
60337;BME280;46978;50.288;28.624;2024-01-07T01:55:56;98825.41;;;-5.09;97.43
60337;BME280;46978;50.288;28.624;2024-01-07T01:56:59;98831.38;;;-5.07;97.55
60337;BME280;46978;50.288;28.624;2024-01-07T01:58:01;98826.20;;;-5.10;97.35
60337;BME280;46978;50.288;28.624;2024-01-07T01:59:03;98823.73;;;-5.09;97.64
60337;BME280;46978;50.288;28.624;2024-01-07T02:00:06;98822.00;;;-5.10;97.81
60337;BME280;46978;50.288;28.624;2024-01-07T02:01:08;98830.47;;;-5.09;97.96
60337;BME280;46978;50.288;28.624;2024-01-07T02:02:10;98823.79;;;-5.07;98.28
60337;BME280;46978;50.288;28.624;2024-01-07T02:03:12;98829.01;;;-5.02;98.27
60337;BME280;46978;50.288;28.624;2024-01-07T02:04:15;98828.84;;;-5.07;97.29
60337;BME280;46978;50.288;28.624;2024-01-07T02:05:17;98829.48;;;-5.13;97.19
60337;BME280;46978;50.288;28.624;2024-01-07T02:06:20;98831.22;;;-5.12;96.99
60337;BME280;46978;50.288;28.624;2024-01-07T02:07:24;98823.62;;;-5.12;96.84
60337;BME280;46978;50.288;28.624;2024-01-07T02:08:26;98832.01;;;-5.13;96.79
60337;BME280;46978;50.288;28.624;2024-01-07T02:09:28;98828.69;;;-5.12;96.68
60337;BME280;46978;50.288;28.624;2024-01-07T02:10:30;98826.16;;;-5.12;96.51
60337;BME280;46978;50.288;28.624;2024-01-07T02:11:31;98826.95;;;-5.13;96.74
60337;BME280;46978;50.288;28.624;2024-01-07T02:12:33;98821.95;;;-5.11;96.54
60337;BME280;46978;50.288;28.624;2024-01-07T02:13:35;98823.68;;;-5.10;96.72
60337;BME280;46978;50.288;28.624;2024-01-07T02:14:36;98823.73;;;-5.09;96.76
60337;BME280;46978;50.288;28.624;2024-01-07T02:15:38;98827.06;;;-5.10;96.91
60337;BME280;46978;50.288;28.624;2024-01-07T02:16:40;98825.36;;;-5.11;97.12
60337;BME280;46978;50.288;28.624;2024-01-07T02:17:41;98833.00;;;-5.09;97.26
60337;BME280;46978;50.288;28.624;2024-01-07T02:18:45;98822.94;;;-5.08;97.22
60337;BME280;46978;50.288;28.624;2024-01-07T02:19:47;98826.20;;;-5.10;96.81
60337;BME280;46978;50.288;28.624;2024-01-07T02:20:49;98821.73;;;-5.17;96.57
60337;BME280;46978;50.288;28.624;2024-01-07T02:21:51;98826.89;;;-5.14;96.87
60337;BME280;46978;50.288;28.624;2024-01-07T02:22:52;98831.10;;;-5.15;97.23
60337;BME280;46978;50.288;28.624;2024-01-07T02:23:54;98830.31;;;-5.14;97.26
60337;BME280;46978;50.288;28.624;2024-01-07T02:24:56;98837.95;;;-5.12;97.38
60337;BME280;46978;50.288;28.624;2024-01-07T02:25:57;98841.28;;;-5.13;96.90
60337;BME280;46978;50.288;28.624;2024-01-07T02:26:59;98841.22;;;-5.15;96.70
60337;BME280;46978;50.288;28.624;2024-01-07T02:28:01;98827.00;;;-5.11;96.64
60337;BME280;46978;50.288;28.624;2024-01-07T02:29:02;98835.94;;;-5.21;96.32
60337;BME280;46978;50.288;28.624;2024-01-07T02:30:05;98839.48;;;-5.16;96.66
60337;BME280;46978;50.288;28.624;2024-01-07T02:31:07;98840.20;;;-5.20;96.52
60337;BME280;46978;50.288;28.624;2024-01-07T02:32:28;98836.11;;;-5.16;96.92
60337;BME280;46978;50.288;28.624;2024-01-07T02:33:30;98831.95;;;-5.14;96.74
60337;BME280;46978;50.288;28.624;2024-01-07T02:34:32;98842.95;;;-5.14;96.93
60337;BME280;46978;50.288;28.624;2024-01-07T02:35:34;98837.06;;;-5.13;97.12
60337;BME280;46978;50.288;28.624;2024-01-07T02:36:35;98834.65;;;-5.10;97.26
60337;BME280;46978;50.288;28.624;2024-01-07T02:37:37;98838.91;;;-5.09;97.27
60337;BME280;46978;50.288;28.624;2024-01-07T02:38:39;98832.12;;;-5.10;97.09
60337;BME280;46978;50.288;28.624;2024-01-07T02:39:41;98840.48;;;-5.12;96.97
60337;BME280;46978;50.288;28.624;2024-01-07T02:40:43;98836.27;;;-5.12;96.81
60337;BME280;46978;50.288;28.624;2024-01-07T02:41:44;98836.33;;;-5.10;96.63
60337;BME280;46978;50.288;28.624;2024-01-07T02:42:46;98843.97;;;-5.09;96.11
60337;BME280;46978;50.288;28.624;2024-01-07T02:43:48;98836.38;;;-5.09;95.97
60337;BME280;46978;50.288;28.624;2024-01-07T02:44:49;98836.44;;;-5.07;95.88
60337;BME280;46978;50.288;28.624;2024-01-07T02:45:51;98845.65;;;-5.09;95.94
60337;BME280;46978;50.288;28.624;2024-01-07T02:46:52;98860.66;;;-5.14;95.87
60337;BME280;46978;50.288;28.624;2024-01-07T02:47:54;98837.84;;;-5.15;96.15
60337;BME280;46978;50.288;28.624;2024-01-07T02:48:56;98844.49;;;-5.17;96.49
60337;BME280;46978;50.288;28.624;2024-01-07T02:49:57;98847.73;;;-5.22;96.91
60337;BME280;46978;50.288;28.624;2024-01-07T02:51:00;98851.23;;;-5.18;96.99
60337;BME280;46978;50.288;28.624;2024-01-07T02:52:02;98853.87;;;-5.15;97.03
60337;BME280;46978;50.288;28.624;2024-01-07T02:53:04;98858.92;;;-5.15;97.04
60337;BME280;46978;50.288;28.624;2024-01-07T02:54:06;98854.72;;;-5.14;96.65
60337;BME280;46978;50.288;28.624;2024-01-07T02:55:07;98854.72;;;-5.14;96.63
60337;BME280;46978;50.288;28.624;2024-01-07T02:56:10;98850.55;;;-5.14;96.82
60337;BME280;46978;50.288;28.624;2024-01-07T02:57:11;98857.25;;;-5.14;96.51
60337;BME280;46978;50.288;28.624;2024-01-07T02:58:13;98855.44;;;-5.18;95.99
60337;BME280;46978;50.288;28.624;2024-01-07T02:59:15;98859.61;;;-5.19;96.25
60337;BME280;46978;50.288;28.624;2024-01-07T03:00:17;98855.27;;;-5.23;96.77
60337;BME280;46978;50.288;28.624;2024-01-07T03:01:21;98851.06;;;-5.23;96.78
60337;BME280;46978;50.288;28.624;2024-01-07T03:02:23;98853.64;;;-5.21;96.83
60337;BME280;46978;50.288;28.624;2024-01-07T03:03:25;98854.44;;;-5.22;96.90
60337;BME280;46978;50.288;28.624;2024-01-07T03:04:27;98847.73;;;-5.22;97.03
60337;BME280;46978;50.288;28.624;2024-01-07T03:05:29;98849.44;;;-5.20;97.09
60337;BME280;46978;50.288;28.624;2024-01-07T03:06:30;98846.00;;;-5.23;97.23
60337;BME280;46978;50.288;28.624;2024-01-07T03:07:32;98849.38;;;-5.22;97.25
60337;BME280;46978;50.288;28.624;2024-01-07T03:08:34;98854.44;;;-5.22;97.28
60337;BME280;46978;50.288;28.624;2024-01-07T03:09:35;98853.59;;;-5.23;97.15
60337;BME280;46978;50.288;28.624;2024-01-07T03:10:37;98853.53;;;-5.24;97.03
60337;BME280;46978;50.288;28.624;2024-01-07T03:11:40;98852.73;;;-5.23;96.72
60337;BME280;46978;50.288;28.624;2024-01-07T03:12:41;98852.80;;;-5.22;96.32
60337;BME280;46978;50.288;28.624;2024-01-07T03:13:43;98868.77;;;-5.23;96.52
60337;BME280;46978;50.288;28.624;2024-01-07T03:14:45;98849.33;;;-5.24;96.47
60337;BME280;46978;50.288;28.624;2024-01-07T03:15:46;98846.00;;;-5.23;96.44
60337;BME280;46978;50.288;28.624;2024-01-07T03:16:48;98850.09;;;-5.26;96.65
60337;BME280;46978;50.288;28.624;2024-01-07T03:17:50;98842.56;;;-5.25;97.09
60337;BME280;46978;50.288;28.624;2024-01-07T03:18:51;98853.59;;;-5.23;97.24
60337;BME280;46978;50.288;28.624;2024-01-07T03:19:53;98854.44;;;-5.22;97.38
60337;BME280;46978;50.288;28.624;2024-01-07T03:20:54;98851.97;;;-5.20;97.47
60337;BME280;46978;50.288;28.624;2024-01-07T03:21:56;98857.02;;;-5.20;97.42
60337;BME280;46978;50.288;28.624;2024-01-07T03:23:00;98866.23;;;-5.23;97.21
60337;BME280;46978;50.288;28.624;2024-01-07T03:24:02;98852.73;;;-5.23;97.32
60337;BME280;46978;50.288;28.624;2024-01-07T03:25:05;98853.53;;;-5.24;97.48
60337;BME280;46978;50.288;28.624;2024-01-07T03:26:07;98868.77;;;-5.23;97.37
60337;BME280;46978;50.288;28.624;2024-01-07T03:27:09;98858.59;;;-5.24;96.89
60337;BME280;46978;50.288;28.624;2024-01-07T03:28:10;98872.09;;;-5.24;96.74
60337;BME280;46978;50.288;28.624;2024-01-07T03:29:12;98851.86;;;-5.24;96.33
60337;BME280;46978;50.288;28.624;2024-01-07T03:30:14;98861.89;;;-5.27;96.35
60337;BME280;46978;50.288;28.624;2024-01-07T03:31:16;98861.92;;;-5.25;96.50
60337;BME280;46978;50.288;28.624;2024-01-07T03:32:17;98856.86;;;-5.25;96.70
60337;BME280;46978;50.288;28.624;2024-01-07T03:33:19;98860.16;;;-5.28;96.23
60337;BME280;46978;50.288;28.624;2024-01-07T03:34:21;98862.69;;;-5.28;95.87
60337;BME280;46978;50.288;28.624;2024-01-07T03:35:22;98868.54;;;-5.29;95.62
60337;BME280;46978;50.288;28.624;2024-01-07T03:36:24;98863.42;;;-5.30;95.78
60337;BME280;46978;50.288;28.624;2024-01-07T03:37:26;98860.95;;;-5.29;95.87
60337;BME280;46978;50.288;28.624;2024-01-07T03:38:28;98871.95;;;-5.28;95.74
60337;BME280;46978;50.288;28.624;2024-01-07T03:39:32;98864.20;;;-5.33;95.14
60337;BME280;46978;50.288;28.624;2024-01-07T03:40:34;98865.11;;;-5.31;94.93
60337;BME280;46978;50.288;28.624;2024-01-07T03:41:35;98876.89;;;-5.31;94.20
60337;BME280;46978;50.288;28.624;2024-01-07T03:42:37;98867.46;;;-5.35;92.41
60337;BME280;46978;50.288;28.624;2024-01-07T03:43:39;98877.46;;;-5.38;91.77
60337;BME280;46978;50.288;28.624;2024-01-07T03:44:40;98881.73;;;-5.37;91.56
60337;BME280;46978;50.288;28.624;2024-01-07T03:45:42;98880.73;;;-5.41;91.29
60337;BME280;46978;50.288;28.624;2024-01-07T03:46:44;98876.38;;;-5.45;91.78
60337;BME280;46978;50.288;28.624;2024-01-07T03:47:45;98876.44;;;-5.44;91.96
60337;BME280;46978;50.288;28.624;2024-01-07T03:48:47;98881.50;;;-5.44;92.20
60337;BME280;46978;50.288;28.624;2024-01-07T03:49:48;98879.70;;;-5.46;92.65
60337;BME280;46978;50.288;28.624;2024-01-07T03:50:50;98876.44;;;-5.44;93.08
60337;BME280;46978;50.288;28.624;2024-01-07T03:51:52;98874.70;;;-5.45;93.08
60337;BME280;46978;50.288;28.624;2024-01-07T03:52:54;98873.09;;;-5.43;93.24
60337;BME280;46978;50.288;28.624;2024-01-07T03:53:55;98877.34;;;-5.42;93.53
60337;BME280;46978;50.288;28.624;2024-01-07T03:54:57;98875.67;;;-5.41;93.41
60337;BME280;46978;50.288;28.624;2024-01-07T03:55:59;98864.70;;;-5.42;93.34
60337;BME280;46978;50.288;28.624;2024-01-07T03:57:01;98875.67;;;-5.41;93.54
60337;BME280;46978;50.288;28.624;2024-01-07T03:58:03;98870.61;;;-5.41;93.70
60337;BME280;46978;50.288;28.624;2024-01-07T03:59:05;98862.17;;;-5.42;93.90
60337;BME280;46978;50.288;28.624;2024-01-07T04:00:08;98862.17;;;-5.42;94.15
60337;BME280;46978;50.288;28.624;2024-01-07T04:01:15;98869.70;;;-5.43;94.48
60337;BME280;46978;50.288;28.624;2024-01-07T04:02:16;98868.91;;;-5.42;94.44
60337;BME280;46978;50.288;28.624;2024-01-07T04:03:17;98866.38;;;-5.42;94.58
60337;BME280;46978;50.288;28.624;2024-01-07T04:04:19;98868.91;;;-5.42;94.91
60337;BME280;46978;50.288;28.624;2024-01-07T04:05:20;98868.85;;;-5.44;95.56
60337;BME280;46978;50.288;28.624;2024-01-07T04:06:23;98868.80;;;-5.45;96.09
60337;BME280;46978;50.288;28.624;2024-01-07T04:07:24;98873.03;;;-5.44;96.32
60337;BME280;46978;50.288;28.624;2024-01-07T04:08:26;98872.17;;;-5.45;96.47
60337;BME280;46978;50.288;28.624;2024-01-07T04:09:27;98877.17;;;-5.46;96.71
60337;BME280;46978;50.288;28.624;2024-01-07T04:10:29;98867.74;;;-5.50;96.61
60337;BME280;46978;50.288;28.624;2024-01-07T04:11:31;98876.15;;;-5.51;96.61
60337;BME280;46978;50.288;28.624;2024-01-07T04:12:33;98883.50;;;-5.57;97.06
60337;BME280;46978;50.288;28.624;2024-01-07T04:13:34;98871.54;;;-5.62;97.74
60337;BME280;46978;50.288;28.624;2024-01-07T04:14:36;98880.09;;;-5.58;97.85
60337;BME280;46978;50.288;28.624;2024-01-07T04:15:37;98874.19;;;-5.59;97.87
60337;BME280;46978;50.288;28.624;2024-01-07T04:16:39;98880.80;;;-5.62;97.25
60337;BME280;46978;50.288;28.624;2024-01-07T04:17:41;98884.05;;;-5.65;97.11
60337;BME280;46978;50.288;28.624;2024-01-07T04:18:42;98874.00;;;-5.63;97.13
60337;BME280;46978;50.288;28.624;2024-01-07T04:19:45;98874.56;;;-5.70;96.38
60337;BME280;46978;50.288;28.624;2024-01-07T04:20:47;98877.15;;;-5.69;96.21
60337;BME280;46978;50.288;28.624;2024-01-07T04:21:48;98882.91;;;-5.73;96.18
60337;BME280;46978;50.288;28.624;2024-01-07T04:22:50;98881.23;;;-5.72;95.96
60337;BME280;46978;50.288;28.624;2024-01-07T04:23:52;98894.72;;;-5.72;95.54
60337;BME280;46978;50.288;28.624;2024-01-07T04:25:13;98893.02;;;-5.73;95.00
60337;BME280;46978;50.288;28.624;2024-01-07T04:26:15;98883.70;;;-5.74;95.00
60337;BME280;46978;50.288;28.624;2024-01-07T04:27:17;98883.77;;;-5.72;95.28
60337;BME280;46978;50.288;28.624;2024-01-07T04:28:19;98885.50;;;-5.71;95.28
60337;BME280;46978;50.288;28.624;2024-01-07T04:29:20;98884.55;;;-5.73;95.24
60337;BME280;46978;50.288;28.624;2024-01-07T04:30:22;98888.70;;;-5.76;95.19
60337;BME280;46978;50.288;28.624;2024-01-07T04:31:24;98880.33;;;-5.74;94.42
60337;BME280;46978;50.288;28.624;2024-01-07T04:32:26;98886.90;;;-5.78;93.93
60337;BME280;46978;50.288;28.624;2024-01-07T04:33:27;98887.61;;;-5.82;94.37
60337;BME280;46978;50.288;28.624;2024-01-07T04:34:29;98884.08;;;-5.86;93.98
60337;BME280;46978;50.288;28.624;2024-01-07T04:35:31;98880.58;;;-5.89;93.79
60337;BME280;46978;50.288;28.624;2024-01-07T04:36:32;98878.05;;;-5.89;94.32
60337;BME280;46978;50.288;28.624;2024-01-07T04:37:35;98892.48;;;-5.87;94.56
60337;BME280;46978;50.288;28.624;2024-01-07T04:38:37;98884.08;;;-5.86;94.60
60337;BME280;46978;50.288;28.624;2024-01-07T04:39:39;98884.02;;;-5.87;94.70
60337;BME280;46978;50.288;28.624;2024-01-07T04:40:40;98884.90;;;-5.87;94.64
60337;BME280;46978;50.288;28.624;2024-01-07T04:41:42;98890.86;;;-5.85;94.31
60337;BME280;46978;50.288;28.624;2024-01-07T04:42:43;98890.92;;;-5.83;94.43
60337;BME280;46978;50.288;28.624;2024-01-07T04:43:45;98889.30;;;-5.81;94.72
60337;BME280;46978;50.288;28.624;2024-01-07T04:44:47;98891.05;;;-5.80;94.59
60337;BME280;46978;50.288;28.624;2024-01-07T04:45:48;98899.47;;;-5.80;94.43
60337;BME280;46978;50.288;28.624;2024-01-07T04:46:50;98887.66;;;-5.81;94.47
60337;BME280;46978;50.288;28.624;2024-01-07T04:47:52;98884.25;;;-5.81;94.57
60337;BME280;46978;50.288;28.624;2024-01-07T04:48:54;98895.30;;;-5.79;94.60
60337;BME280;46978;50.288;28.624;2024-01-07T04:49:56;98901.94;;;-5.81;94.74
60337;BME280;46978;50.288;28.624;2024-01-07T04:50:58;98906.75;;;-5.87;95.36
60337;BME280;46978;50.288;28.624;2024-01-07T04:52:00;98903.07;;;-5.96;95.90
60337;BME280;46978;50.288;28.624;2024-01-07T04:53:01;98889.59;;;-5.96;95.68
60337;BME280;46978;50.288;28.624;2024-01-07T04:54:03;98896.31;;;-5.97;95.94
60337;BME280;46978;50.288;28.624;2024-01-07T04:55:05;98897.22;;;-5.95;96.02
60337;BME280;46978;50.288;28.624;2024-01-07T04:56:07;98887.97;;;-5.94;96.20
60337;BME280;46978;50.288;28.624;2024-01-07T04:57:09;98894.77;;;-5.93;96.20
60337;BME280;46978;50.288;28.624;2024-01-07T04:58:10;98899.88;;;-5.91;96.15
60337;BME280;46978;50.288;28.624;2024-01-07T04:59:12;98894.88;;;-5.90;95.26
60337;BME280;46978;50.288;28.624;2024-01-07T05:00:15;98898.20;;;-5.91;94.79
60337;BME280;46978;50.288;28.624;2024-01-07T05:01:17;98890.56;;;-5.92;94.38
60337;BME280;46978;50.288;28.624;2024-01-07T05:02:18;98895.61;;;-5.92;94.14
60337;BME280;46978;50.288;28.624;2024-01-07T05:03:20;98908.97;;;-5.95;94.67
60337;BME280;46978;50.288;28.624;2024-01-07T05:04:22;98893.78;;;-5.97;95.04
60337;BME280;46978;50.288;28.624;2024-01-07T05:05:23;98896.19;;;-6.00;95.15
60337;BME280;46978;50.288;28.624;2024-01-07T05:06:25;98892.02;;;-5.99;95.01
60337;BME280;46978;50.288;28.624;2024-01-07T05:07:27;98899.54;;;-6.01;95.18
60337;BME280;46978;50.288;28.624;2024-01-07T05:08:28;98895.41;;;-5.99;95.23
60337;BME280;46978;50.288;28.624;2024-01-07T05:09:31;98899.60;;;-5.99;94.70
60337;BME280;46978;50.288;28.624;2024-01-07T05:10:33;98895.28;;;-6.02;94.56
60337;BME280;46978;50.288;28.624;2024-01-07T05:11:39;98900.33;;;-6.02;94.43
60337;BME280;46978;50.288;28.624;2024-01-07T05:12:41;98909.39;;;-6.07;94.19
60337;BME280;46978;50.288;28.624;2024-01-07T05:13:42;98897.55;;;-6.08;94.34
60337;BME280;46978;50.288;28.624;2024-01-07T05:14:44;98900.02;;;-6.09;94.20
60337;BME280;46978;50.288;28.624;2024-01-07T05:15:46;98900.62;;;-6.15;93.64
60337;BME280;46978;50.288;28.624;2024-01-07T05:16:48;98899.83;;;-6.14;93.67
60337;BME280;46978;50.288;28.624;2024-01-07T05:17:50;98906.62;;;-6.13;93.76
60337;BME280;46978;50.288;28.624;2024-01-07T05:18:51;98898.16;;;-6.14;93.42
60337;BME280;46978;50.288;28.624;2024-01-07T05:19:53;98904.88;;;-6.14;93.60
60337;BME280;46978;50.288;28.624;2024-01-07T05:20:55;98902.30;;;-6.16;92.98
60337;BME280;46978;50.288;28.624;2024-01-07T05:21:56;98902.30;;;-6.16;92.98
60337;BME280;46978;50.288;28.624;2024-01-07T05:22:58;98901.45;;;-6.16;92.98